Lisnaskea, United Kingdom
Current Conditions -  °F | °C
As of 4:00 PM on Saturday 20 Dec 2014 (Local Time) from EISG Reporting Station
Overcast Overcast  
Wind Chill: 41°   Ceiling: 3800
Heat Index: 46°   Visibility: 4mi
Dew Point: 43°   Wind: 10mph
Humidity: 87%   Direction: 240°WSW
Pressure: 30.3"   Gusts: NA
Location:  54.25°N, 7.45°W
Report Text: EISG 201600Z 24009KT 6000 SCT027 OVC038 08/06 Q1026
Loading
Personal Weather Stations






























Interactive Weather Map New forecast layout! Learn more

10-Day Weather Forecast

Advertisements
Track Severe Weather on mobile